Time;durP1;ratioP1;P1;durP2;ratioP2;P2;SDS_P1;SDS_P2;PMS_P1;PMS_P2;Temp;Humidity;BMP_temperature;BMP_pressure;BME280_temperature;BME280_humidity;BME280_pressure;Samples;Min_cycle;Max_cycle;Signal;HPM_P1;HPM_P2
2022/10/23 00:00:43;;;;;;;10.40;6.83;;;14.00;99.90;;;;;;5038166;28;20197;-54
2022/10/23 00:03:10;;;;;;;9.67;5.90;;;14.00;99.90;;;;;;5040544;28;20207;-55
2022/10/23 00:05:40;;;;;;;9.97;5.77;;;14.00;99.90;;;;;;5042358;28;20567;-55
2022/10/23 00:08:07;;;;;;;9.63;5.67;;;13.90;99.90;;;;;;5038279;28;20201;-56
2022/10/23 00:10:34;;;;;;;10.67;5.77;;;14.00;99.90;;;;;;5045583;28;20220;-55
2022/10/23 00:13:01;;;;;;;8.07;6.33;;;14.00;99.90;;;;;;5038174;28;20198;-55
2022/10/23 00:15:29;;;;;;;10.53;6.00;;;14.00;99.90;;;;;;5034958;28;20297;-54
2022/10/23 00:17:56;;;;;;;7.73;6.03;;;14.00;99.90;;;;;;5041577;28;20530;-55
2022/10/23 00:20:23;;;;;;;12.43;6.77;;;14.00;99.90;;;;;;5034841;28;20706;-54
2022/10/23 00:22:49;;;;;;;12.03;6.07;;;14.00;99.90;;;;;;5036713;28;20197;-55
2022/10/23 00:25:17;;;;;;;11.70;6.40;;;14.00;99.90;;;;;;5039207;28;20691;-55
2022/10/23 00:27:44;;;;;;;13.53;6.40;;;14.00;99.90;;;;;;5042245;28;20201;-54
2022/10/23 00:30:11;;;;;;;9.33;6.53;;;14.00;99.90;;;;;;5040679;28;20202;-54
2022/10/23 00:32:38;;;;;;;9.87;6.60;;;14.00;99.90;;;;;;5030393;28;20207;-54
2022/10/23 00:35:05;;;;;;;8.13;6.53;;;14.00;99.90;;;;;;5034624;28;20552;-55
2022/10/23 00:37:32;;;;;;;14.60;7.13;;;14.00;99.90;;;;;;5025014;28;21669;-54
2022/10/23 00:39:59;;;;;;;11.50;6.83;;;14.00;99.90;;;;;;5022739;28;20204;-54
2022/10/23 00:42:26;;;;;;;9.13;6.17;;;14.00;99.90;;;;;;5044784;28;20237;-55
2022/10/23 00:44:52;;;;;;;10.37;6.70;;;14.00;99.90;;;;;;5044824;28;20546;-55
2022/10/23 00:47:19;;;;;;;11.60;6.77;;;13.90;99.90;;;;;;5040819;28;20646;-55
2022/10/23 00:49:46;;;;;;;9.50;6.50;;;13.90;99.90;;;;;;5039107;28;20210;-56
2022/10/23 00:52:13;;;;;;;15.03;6.73;;;13.80;99.90;;;;;;5046416;28;20195;-55
2022/10/23 00:54:42;;;;;;;11.40;6.83;;;13.90;99.90;;;;;;5045816;28;20720;-55
2022/10/23 00:57:14;;;;;;;11.23;6.97;;;13.90;99.90;;;;;;5039536;28;20872;-55
2022/10/23 00:59:41;;;;;;;11.57;6.87;;;13.90;99.90;;;;;;5049071;28;20795;-55
2022/10/23 01:02:09;;;;;;;12.10;7.67;;;13.90;99.90;;;;;;5051910;28;20200;-54
2022/10/23 01:04:36;;;;;;;10.37;7.53;;;13.90;99.90;;;;;;5053837;28;20216;-55
2022/10/23 01:07:28;;;;;;;11.90;7.43;;;13.90;99.90;;;;;;5048594;28;20676;-55
2022/10/23 01:10:29;;;;;;;12.93;7.23;;;13.80;99.90;;;;;;5048140;28;20231;-55
2022/10/23 01:13:11;;;;;;;11.83;7.80;;;13.90;99.90;;;;;;5045785;28;20422;-54
2022/10/23 01:15:48;;;;;;;10.87;7.63;;;13.90;99.90;;;;;;5039074;28;20206;-55
2022/10/23 01:18:35;;;;;;;12.80;8.10;;;13.90;99.90;;;;;;5048121;28;20704;-55
2022/10/23 01:21:31;;;;;;;12.57;7.90;;;13.90;99.90;;;;;;5045139;28;20386;-55
2022/10/23 01:24:23;;;;;;;12.53;7.20;;;13.80;99.90;;;;;;5046520;28;20354;-55
2022/10/23 01:27:01;;;;;;;11.90;6.93;;;13.90;99.90;;;;;;5044527;28;20241;-55
2022/10/23 01:29:31;;;;;;;9.33;6.87;;;13.90;99.90;;;;;;5048465;28;20807;-55
2022/10/23 01:32:11;;;;;;;8.87;7.67;;;13.90;99.90;;;;;;5038331;28;20196;-54
2022/10/23 01:34:53;;;;;;;12.67;7.97;;;13.90;99.90;;;;;;5049905;28;20624;-55
2022/10/23 01:37:33;;;;;;;12.40;7.17;;;13.90;99.90;;;;;;5044110;28;20219;-55
2022/10/23 01:40:04;;;;;;;11.13;6.57;;;13.90;99.90;;;;;;5036084;28;20197;-55
2022/10/23 01:42:43;;;;;;;10.03;6.00;;;13.90;99.90;;;;;;4684529;28;10000175;-55
2022/10/23 01:45:41;;;;;;;10.23;6.03;;;13.90;99.90;;;;;;5044671;28;20212;-54
2022/10/23 01:48:13;;;;;;;11.47;6.03;;;13.90;99.90;;;;;;5041961;28;20210;-55
2022/10/23 01:50:42;;;;;;;9.57;6.07;;;14.00;99.90;;;;;;5044152;28;20729;-56
2022/10/23 01:53:09;;;;;;;11.33;6.33;;;13.80;99.90;;;;;;5046571;28;20280;-54
2022/10/23 01:55:37;;;;;;;11.10;6.27;;;13.80;99.90;;;;;;5040911;28;20237;-55
2022/10/23 01:58:07;;;;;;;12.17;7.30;;;13.80;99.90;;;;;;5049724;28;20231;-54
2022/10/23 02:00:36;;;;;;;6.90;5.73;;;13.80;99.90;;;;;;5045162;28;20208;-54
2022/10/23 02:03:05;;;;;;;11.63;6.13;;;13.80;99.90;;;;;;5050252;28;20218;-55
2022/10/23 02:05:32;;;;;;;10.23;6.70;;;13.80;99.90;;;;;;5052076;28;20211;-55
2022/10/23 02:08:00;;;;;;;10.87;6.17;;;13.80;99.90;;;;;;5059150;28;20276;-55
2022/10/23 02:10:40;;;;;;;10.20;6.67;;;13.70;99.90;;;;;;5040980;28;20228;-55
2022/10/23 02:13:17;;;;;;;12.43;6.60;;;13.70;99.90;;;;;;5036564;28;20195;-54
2022/10/23 02:15:54;;;;;;;9.57;6.20;;;13.70;99.90;;;;;;5035716;28;20197;-55
2022/10/23 02:18:43;;;;;;;14.13;6.37;;;13.70;99.90;;;;;;5038340;28;20200;-55
2022/10/23 02:21:14;;;;;;;7.50;6.07;;;13.70;99.90;;;;;;5041278;28;20203;-55
2022/10/23 02:23:53;;;;;;;12.40;6.23;;;13.70;99.90;;;;;;5045304;28;20207;-55
2022/10/23 02:26:31;;;;;;;12.43;5.70;;;13.70;99.90;;;;;;5046233;28;20197;-55
2022/10/23 02:29:07;;;;;;;6.60;5.00;;;13.70;99.90;;;;;;5046522;28;20192;-55
2022/10/23 02:31:34;;;;;;;11.90;5.10;;;13.80;99.90;;;;;;5044230;28;20196;-55
2022/10/23 02:34:02;;;;;;;11.60;5.40;;;13.70;99.90;;;;;;5047779;28;20204;-55
2022/10/23 02:36:29;;;;;;;9.33;5.30;;;13.60;99.90;;;;;;5045608;28;20214;-55
2022/10/23 02:38:58;;;;;;;9.23;5.20;;;13.60;99.90;;;;;;5045197;28;20208;-55
2022/10/23 02:41:54;;;;;;;8.30;5.87;;;13.60;99.90;;;;;;5035550;28;20225;-54
2022/10/23 02:44:40;;;;;;;9.83;5.33;;;13.70;99.90;;;;;;5051485;28;20710;-57
2022/10/23 02:47:29;;;;;;;8.73;4.90;;;13.60;99.90;;;;;;5040413;28;20798;-54
2022/10/23 02:50:21;;;;;;;10.97;4.97;;;13.70;99.90;;;;;;5037110;28;20231;-54
2022/10/23 02:52:48;;;;;;;12.50;5.37;;;13.70;99.90;;;;;;5046569;28;20201;-54
2022/10/23 02:55:24;;;;;;;7.03;5.07;;;13.70;99.90;;;;;;5047874;28;20248;-55
2022/10/23 02:58:15;;;;;;;9.73;4.77;;;13.70;99.90;;;;;;5042835;28;20196;-55
2022/10/23 03:00:48;;;;;;;8.93;4.90;;;13.70;99.90;;;;;;5039654;28;20206;-54
2022/10/23 03:03:21;;;;;;;8.37;4.20;;;13.60;99.90;;;;;;5047859;28;20251;-55
2022/10/23 03:05:48;;;;;;;11.03;4.90;;;13.60;99.90;;;;;;5045881;28;20853;-55
2022/10/23 03:08:15;;;;;;;6.83;4.30;;;13.60;99.90;;;;;;5045068;28;20202;-55
2022/10/23 03:10:42;;;;;;;10.20;5.03;;;13.60;99.90;;;;;;5046716;28;20661;-55
2022/10/23 03:13:10;;;;;;;9.40;4.67;;;13.70;99.90;;;;;;5047600;28;20221;-54
2022/10/23 03:15:37;;;;;;;7.27;4.30;;;13.60;99.90;;;;;;5046203;28;20580;-55
2022/10/23 03:18:04;;;;;;;11.63;4.50;;;13.70;99.90;;;;;;5047663;28;20861;-55
2022/10/23 03:20:30;;;;;;;6.87;4.73;;;13.70;99.90;;;;;;5040674;28;20201;-55
2022/10/23 03:22:57;;;;;;;9.50;4.37;;;13.70;99.90;;;;;;5044535;28;20196;-55
2022/10/23 03:25:24;;;;;;;9.23;4.67;;;13.70;99.90;;;;;;5045030;28;21255;-55
2022/10/23 03:27:51;;;;;;;6.97;4.60;;;13.80;99.90;;;;;;5039092;28;20193;-55
2022/10/23 03:30:18;;;;;;;6.83;4.20;;;13.70;99.90;;;;;;5039959;28;20240;-56
2022/10/23 03:32:44;;;;;;;8.30;4.80;;;13.80;99.90;;;;;;5048068;28;20206;-54
2022/10/23 03:35:11;;;;;;;6.80;3.93;;;13.70;99.90;;;;;;5036108;28;20208;-54
2022/10/23 03:37:38;;;;;;;7.57;4.47;;;13.70;99.90;;;;;;5041469;28;20216;-55
2022/10/23 03:40:06;;;;;;;11.43;4.87;;;13.70;99.90;;;;;;5045612;28;20222;-55
2022/10/23 03:42:33;;;;;;;13.40;5.07;;;13.70;99.90;;;;;;5047845;28;20259;-59
2022/10/23 03:44:59;;;;;;;11.30;4.80;;;13.70;99.90;;;;;;5044468;28;20225;-55
2022/10/23 03:47:26;;;;;;;7.87;4.93;;;13.70;99.90;;;;;;5042782;28;20197;-54
2022/10/23 03:49:53;;;;;;;6.57;4.50;;;13.70;99.90;;;;;;5040218;28;20196;-55
2022/10/23 03:52:20;;;;;;;6.20;4.90;;;13.70;99.90;;;;;;5045436;28;20184;-55
2022/10/23 03:54:46;;;;;;;7.80;4.90;;;13.70;99.90;;;;;;5045545;28;20603;-54
2022/10/23 03:57:13;;;;;;;8.87;4.93;;;13.70;99.90;;;;;;5046703;28;20846;-54
2022/10/23 03:59:40;;;;;;;6.90;4.40;;;13.70;99.90;;;;;;5047605;28;20684;-53
2022/10/23 04:02:07;;;;;;;9.60;4.93;;;13.80;99.90;;;;;;5045243;28;20227;-54
2022/10/23 04:04:33;;;;;;;9.60;5.77;;;13.70;99.90;;;;;;5043940;28;20230;-55
2022/10/23 04:07:00;;;;;;;7.20;4.93;;;13.70;99.90;;;;;;5044994;28;20833;-54
2022/10/23 04:09:27;;;;;;;11.83;4.87;;;13.70;99.90;;;;;;5046257;28;20686;-54
2022/10/23 04:11:54;;;;;;;9.80;4.87;;;13.70;99.90;;;;;;5043961;28;20204;-54
2022/10/23 04:14:21;;;;;;;11.17;5.33;;;13.70;99.90;;;;;;5046014;28;20801;-54
2022/10/23 04:16:48;;;;;;;9.53;4.73;;;13.80;99.90;;;;;;5046175;28;20626;-55
2022/10/23 04:19:16;;;;;;;10.47;4.87;;;13.70;99.90;;;;;;5043399;28;20290;-54
2022/10/23 04:21:43;;;;;;;7.87;5.43;;;13.80;99.90;;;;;;5045478;28;20292;-53
2022/10/23 04:24:10;;;;;;;8.50;4.63;;;13.80;99.90;;;;;;5042544;28;20199;-56
2022/10/23 04:26:36;;;;;;;9.87;5.53;;;13.70;99.90;;;;;;5045802;28;20567;-55
2022/10/23 04:29:03;;;;;;;7.63;5.00;;;13.70;99.90;;;;;;5046490;28;20203;-54
2022/10/23 04:31:30;;;;;;;8.60;5.57;;;13.80;99.90;;;;;;5042774;28;20199;-55
2022/10/23 04:33:57;;;;;;;11.50;5.33;;;13.70;99.90;;;;;;5039570;28;20210;-54
2022/10/23 04:36:24;;;;;;;12.10;4.90;;;13.80;99.90;;;;;;5045049;28;20207;-58
2022/10/23 04:38:52;;;;;;;6.67;4.57;;;13.80;99.90;;;;;;5042301;28;20202;-54
2022/10/23 04:41:18;;;;;;;10.50;5.67;;;13.80;99.90;;;;;;5041795;28;20196;-60
2022/10/23 04:43:45;;;;;;;9.63;4.70;;;13.80;99.90;;;;;;5036870;28;20200;-56
2022/10/23 04:46:12;;;;;;;10.30;5.43;;;13.70;99.90;;;;;;5042802;28;20212;-54
2022/10/23 04:48:38;;;;;;;10.23;4.63;;;13.80;99.90;;;;;;5044652;28;20207;-55
2022/10/23 04:51:05;;;;;;;7.03;4.77;;;13.70;99.90;;;;;;5044215;28;20200;-63
2022/10/23 04:53:32;;;;;;;9.70;4.90;;;13.70;99.90;;;;;;5047278;28;20215;-55
2022/10/23 04:56:00;;;;;;;10.83;4.60;;;13.80;99.90;;;;;;5046360;28;20241;-57
2022/10/23 04:58:28;;;;;;;9.70;5.10;;;13.80;99.90;;;;;;5053234;28;20202;-57
2022/10/23 05:00:55;;;;;;;6.77;4.43;;;13.80;99.90;;;;;;5049238;28;20653;-55
2022/10/23 05:03:24;;;;;;;10.57;4.60;;;13.80;99.90;;;;;;5050398;28;20199;-55
2022/10/23 05:05:55;;;;;;;11.30;4.67;;;13.80;99.90;;;;;;5046569;28;20208;-54
2022/10/23 05:08:22;;;;;;;12.63;4.90;;;13.80;99.90;;;;;;5046699;28;20192;-55
2022/10/23 05:10:49;;;;;;;7.67;4.23;;;13.70;99.90;;;;;;5045195;28;20590;-54
2022/10/23 05:13:18;;;;;;;7.00;4.50;;;13.70;99.90;;;;;;5046710;28;20935;-55
2022/10/23 05:15:49;;;;;;;6.67;4.30;;;13.70;99.90;;;;;;5045373;28;20540;-54
2022/10/23 05:18:24;;;;;;;7.33;4.13;;;13.80;99.90;;;;;;5045754;28;20540;-55
2022/10/23 05:21:00;;;;;;;5.67;4.27;;;13.70;99.90;;;;;;5038888;28;20208;-55
2022/10/23 05:23:30;;;;;;;14.40;4.43;;;13.80;99.90;;;;;;5050104;28;20350;-55
2022/10/23 05:25:56;;;;;;;8.60;4.17;;;13.80;99.90;;;;;;5045679;28;20209;-55
2022/10/23 05:28:23;;;;;;;5.90;3.97;;;13.80;99.90;;;;;;5048858;28;20207;-55
2022/10/23 05:30:50;;;;;;;7.10;3.97;;;13.80;99.90;;;;;;5047256;28;20705;-55
2022/10/23 05:33:17;;;;;;;4.83;3.77;;;13.80;99.90;;;;;;5049409;28;20202;-56
2022/10/23 05:35:44;;;;;;;8.20;4.53;;;13.80;99.90;;;;;;5047440;28;20208;-55
2022/10/23 05:38:13;;;;;;;9.10;3.80;;;13.80;99.90;;;;;;5048723;28;20231;-56
2022/10/23 05:40:39;;;;;;;6.80;4.57;;;13.80;99.90;;;;;;5048540;28;20680;-55
2022/10/23 05:43:09;;;;;;;6.00;3.90;;;13.80;99.90;;;;;;5048448;28;20215;-54
2022/10/23 05:45:36;;;;;;;6.70;4.00;;;13.80;99.90;;;;;;5050401;28;20226;-55
2022/10/23 05:48:02;;;;;;;8.37;4.20;;;13.80;99.90;;;;;;5046804;28;20204;-58
2022/10/23 05:50:47;;;;;;;7.73;3.90;;;13.90;99.90;;;;;;5044043;28;20198;-55
2022/10/23 05:53:14;;;;;;;5.40;3.70;;;13.90;99.90;;;;;;5041877;28;20190;-54
2022/10/23 05:55:41;;;;;;;6.57;3.73;;;13.80;99.90;;;;;;5041345;28;20247;-54
2022/10/23 05:58:07;;;;;;;4.27;3.60;;;13.90;99.90;;;;;;5043370;28;20204;-54
2022/10/23 06:00:34;;;;;;;8.33;4.50;;;13.90;99.90;;;;;;5033684;28;20531;-55
2022/10/23 06:03:01;;;;;;;5.07;3.77;;;13.80;99.90;;;;;;5044379;28;20476;-55
2022/10/23 06:05:28;;;;;;;6.90;3.67;;;13.80;99.90;;;;;;5041905;28;20220;-54
2022/10/23 06:07:59;;;;;;;6.03;3.80;;;13.80;99.90;;;;;;5043145;28;20196;-55
2022/10/23 06:10:26;;;;;;;8.10;4.60;;;13.80;99.90;;;;;;5041498;28;20217;-55
2022/10/23 06:12:53;;;;;;;8.07;4.07;;;13.80;99.90;;;;;;5047050;28;20640;-54
2022/10/23 06:15:20;;;;;;;7.77;4.23;;;13.80;99.90;;;;;;5049496;28;20211;-55
2022/10/23 06:17:46;;;;;;;7.87;4.17;;;13.80;99.90;;;;;;5050466;28;20211;-55
2022/10/23 06:20:13;;;;;;;5.77;4.33;;;13.80;99.90;;;;;;5047976;28;20192;-54
2022/10/23 06:22:40;;;;;;;7.57;3.67;;;13.80;99.90;;;;;;5050046;28;20718;-55
2022/10/23 06:25:08;;;;;;;7.37;4.07;;;13.80;99.90;;;;;;5041215;28;20231;-55
2022/10/23 06:27:34;;;;;;;10.37;4.87;;;13.80;99.90;;;;;;5041681;28;20203;-54
2022/10/23 06:30:01;;;;;;;6.20;3.87;;;13.90;99.90;;;;;;5040769;28;20492;-54
2022/10/23 06:32:30;;;;;;;8.30;3.53;;;13.90;99.90;;;;;;5046511;28;20207;-55
2022/10/23 06:34:57;;;;;;;8.90;3.93;;;13.90;99.90;;;;;;5044550;28;20221;-55
2022/10/23 06:37:24;;;;;;;6.43;4.07;;;13.90;99.90;;;;;;5047867;28;20196;-54
2022/10/23 06:39:51;;;;;;;7.90;3.87;;;13.90;99.90;;;;;;5040724;28;20291;-55
2022/10/23 06:42:17;;;;;;;7.50;4.07;;;13.90;99.90;;;;;;5041669;28;20210;-54
2022/10/23 06:44:44;;;;;;;6.90;3.70;;;13.80;99.90;;;;;;5042096;28;20192;-54
2022/10/23 06:47:13;;;;;;;6.50;4.03;;;13.80;99.90;;;;;;5045193;28;20651;-55
2022/10/23 06:49:40;;;;;;;10.67;4.03;;;13.80;99.90;;;;;;5073083;28;20210;-55
2022/10/23 06:52:06;;;;;;;9.83;4.17;;;13.90;99.90;;;;;;5081798;28;20201;-54
2022/10/23 06:54:48;;;;;;;5.97;3.77;;;13.80;99.90;;;;;;5067495;28;20596;-55
2022/10/23 06:57:15;;;;;;;7.60;3.97;;;13.90;99.90;;;;;;5060923;28;20282;-55
2022/10/23 06:59:42;;;;;;;8.30;3.90;;;13.90;99.90;;;;;;5081592;28;20646;-55
2022/10/23 07:02:09;;;;;;;7.10;4.00;;;13.90;99.90;;;;;;5078292;28;20653;-55
2022/10/23 07:04:36;;;;;;;6.63;4.00;;;13.90;99.90;;;;;;5062666;28;20200;-55
2022/10/23 07:07:03;;;;;;;6.00;4.43;;;13.90;99.90;;;;;;5079819;28;20209;-54
2022/10/23 07:09:29;;;;;;;7.03;4.07;;;13.90;99.90;;;;;;5080887;28;20436;-55
2022/10/23 07:11:56;;;;;;;7.10;4.50;;;13.90;99.90;;;;;;5081805;28;20255;-54
2022/10/23 07:14:23;;;;;;;9.43;4.00;;;14.00;99.90;;;;;;5082265;28;20551;-55
2022/10/23 07:16:49;;;;;;;9.50;4.50;;;14.00;99.90;;;;;;5080064;28;20200;-55
2022/10/23 07:19:16;;;;;;;7.73;4.23;;;14.00;99.90;;;;;;5074826;28;20212;-55
2022/10/23 07:21:43;;;;;;;7.43;4.03;;;14.00;99.90;;;;;;4717295;28;10000386;-54
2022/10/23 07:24:30;;;;;;;6.03;4.20;;;14.10;99.90;;;;;;5069753;28;20195;-54
2022/10/23 07:26:57;;;;;;;6.73;3.80;;;14.10;99.90;;;;;;5080401;28;20214;-55
2022/10/23 07:29:24;;;;;;;10.67;4.60;;;14.10;99.90;;;;;;5083135;28;20200;-54
2022/10/23 07:31:50;;;;;;;8.20;5.00;;;14.10;99.90;;;;;;5083925;28;20195;-55
2022/10/23 07:34:17;;;;;;;8.60;4.60;;;14.10;99.90;;;;;;5081842;28;20555;-54
2022/10/23 07:36:44;;;;;;;7.97;4.53;;;14.10;99.90;;;;;;5063440;28;20288;-55
2022/10/23 07:39:11;;;;;;;7.20;4.47;;;14.10;99.90;;;;;;5063760;28;20195;-54
2022/10/23 07:41:37;;;;;;;7.10;4.00;;;14.10;99.90;;;;;;5084806;28;20205;-54
2022/10/23 07:44:04;;;;;;;6.47;4.77;;;14.10;99.90;;;;;;5075308;28;20234;-55
2022/10/23 07:46:31;;;;;;;5.07;4.07;;;14.10;99.90;;;;;;5078326;28;20216;-55
2022/10/23 07:48:58;;;;;;;10.43;4.80;;;14.20;99.90;;;;;;5072715;28;20290;-56
2022/10/23 07:51:24;;;;;;;8.10;4.07;;;14.20;99.90;;;;;;5080383;28;20200;-54
2022/10/23 07:53:51;;;;;;;6.70;4.13;;;14.20;99.90;;;;;;5081084;28;20195;-55
2022/10/23 07:56:28;;;;;;;8.07;4.30;;;14.30;99.90;;;;;;5080707;28;20237;-55
2022/10/23 07:58:55;;;;;;;7.70;4.23;;;14.30;99.90;;;;;;5078800;28;20197;-54
2022/10/23 08:01:32;;;;;;;7.17;4.53;;;14.40;99.90;;;;;;5079943;28;20205;-55
2022/10/23 08:04:00;;;;;;;6.90;4.23;;;14.30;99.90;;;;;;5081549;28;20207;-54
2022/10/23 08:06:27;;;;;;;7.50;4.57;;;14.40;99.90;;;;;;5077452;28;20225;-54
2022/10/23 08:08:54;;;;;;;8.60;4.00;;;14.30;99.90;;;;;;5080280;28;20195;-55
2022/10/23 08:11:26;;;;;;;6.90;4.50;;;14.40;99.90;;;;;;5079327;28;20227;-55
2022/10/23 08:13:55;;;;;;;6.83;4.27;;;14.40;99.90;;;;;;5084079;28;20209;-54
2022/10/23 08:16:23;;;;;;;6.10;4.13;;;14.40;99.90;;;;;;5079588;28;20207;-54
2022/10/23 08:18:50;;;;;;;5.43;3.83;;;14.50;99.90;;;;;;5071434;28;20216;-55
2022/10/23 08:21:17;;;;;;;6.53;3.90;;;14.50;99.90;;;;;;5078598;28;20576;-56
2022/10/23 08:23:44;;;;;;;7.93;4.07;;;14.60;99.90;;;;;;5081326;28;20222;-56
2022/10/23 08:26:11;;;;;;;8.87;4.60;;;14.60;99.90;;;;;;5080985;28;20557;-56
2022/10/23 08:28:38;;;;;;;8.17;4.10;;;14.70;99.90;;;;;;5081711;28;20202;-55
2022/10/23 08:31:17;;;;;;;6.27;4.10;;;14.70;99.90;;;;;;5063919;28;20214;-56
2022/10/23 08:33:44;;;;;;;9.00;4.30;;;14.80;99.90;;;;;;5079862;28;20200;-56
2022/10/23 08:36:21;;;;;;;8.03;4.27;;;14.80;99.90;;;;;;5083637;28;20201;-56
2022/10/23 08:38:48;;;;;;;9.13;4.03;;;14.90;99.90;;;;;;5081321;28;20191;-57
2022/10/23 08:41:39;;;;;;;7.90;4.37;;;14.90;99.90;;;;;;5084385;28;20196;-56
2022/10/23 08:44:26;;;;;;;9.93;4.70;;;14.90;99.90;;;;;;5086361;28;20669;-56
2022/10/23 08:47:07;;;;;;;8.67;4.20;;;14.90;99.90;;;;;;5083480;28;20214;-56
2022/10/23 08:49:48;;;;;;;10.03;4.17;;;14.90;99.90;;;;;;5084168;28;20564;-56
2022/10/23 08:52:30;;;;;;;8.80;4.23;;;14.90;99.90;;;;;;5087180;28;20190;-56
2022/10/23 08:55:14;;;;;;;6.37;4.67;;;14.90;99.90;;;;;;5084392;28;20187;-56
2022/10/23 08:57:49;;;;;;;4.33;3.93;;;15.00;99.90;;;;;;5086701;28;20204;-56
2022/10/23 09:00:17;;;;;;;10.20;4.40;;;14.90;99.90;;;;;;5081645;28;20190;-57
2022/10/23 09:02:50;;;;;;;9.20;4.23;;;15.00;99.90;;;;;;5085483;28;20655;-56
2022/10/23 09:05:17;;;;;;;11.67;4.60;;;15.00;99.90;;;;;;5083948;28;20206;-56
2022/10/23 09:08:00;;;;;;;7.17;4.67;;;15.00;99.90;;;;;;5082704;28;20640;-56
2022/10/23 09:10:53;;;;;;;5.93;4.23;;;15.10;99.90;;;;;;5086802;28;20254;-56
2022/10/23 09:13:46;;;;;;;6.17;4.40;;;15.10;99.90;;;;;;5085705;28;20301;-57
2022/10/23 09:16:26;;;;;;;5.70;4.27;;;15.10;99.90;;;;;;5079879;28;20206;-55
2022/10/23 09:18:54;;;;;;;12.30;4.73;;;15.20;99.90;;;;;;5083996;28;20204;-56
2022/10/23 09:21:26;;;;;;;7.13;4.33;;;15.10;99.90;;;;;;5082941;28;20196;-55
2022/10/23 09:23:53;;;;;;;7.87;4.23;;;15.10;99.90;;;;;;5090924;28;20191;-56
2022/10/23 09:26:19;;;;;;;6.57;4.80;;;15.10;99.90;;;;;;5066652;28;20228;-56
2022/10/23 09:29:01;;;;;;;5.33;4.37;;;15.10;99.90;;;;;;5093066;28;20193;-56
2022/10/23 09:31:27;;;;;;;7.97;4.30;;;15.20;99.90;;;;;;5067353;28;20210;-55
2022/10/23 09:34:00;;;;;;;5.73;4.20;;;15.20;99.90;;;;;;5070798;28;20563;-55
2022/10/23 09:36:28;;;;;;;4.73;3.90;;;15.30;99.90;;;;;;5085968;28;20209;-55
2022/10/23 09:38:59;;;;;;;5.77;3.83;;;15.30;99.90;;;;;;5088669;28;20197;-56
2022/10/23 09:41:27;;;;;;;7.27;4.10;;;15.30;99.90;;;;;;5087097;28;20200;-56
2022/10/23 09:44:06;;;;;;;8.20;5.90;;;15.40;99.90;;;;;;5086918;28;20196;-57
2022/10/23 09:46:41;;;;;;;5.57;4.00;;;15.40;99.90;;;;;;5086840;28;20211;-55
2022/10/23 09:49:17;;;;;;;5.63;4.10;;;15.50;99.90;;;;;;5091556;28;20330;-56
2022/10/23 09:52:09;;;;;;;7.77;4.57;;;15.50;99.90;;;;;;5064928;28;20576;-56
2022/10/23 09:54:50;;;;;;;7.07;3.83;;;15.50;99.90;;;;;;5084616;28;20287;-56
2022/10/23 09:57:25;;;;;;;9.20;3.83;;;15.60;99.90;;;;;;5085891;28;20250;-56
2022/10/23 10:00:05;;;;;;;8.00;3.97;;;15.70;99.90;;;;;;5080651;28;20206;-56
2022/10/23 10:02:36;;;;;;;7.13;4.20;;;15.70;99.90;;;;;;5085451;28;20291;-56
2022/10/23 10:05:25;;;;;;;6.87;3.83;;;15.70;99.90;;;;;;5078402;28;20200;-56
2022/10/23 10:07:59;;;;;;;4.37;3.40;;;15.70;99.90;;;;;;5082330;28;20683;-56
2022/10/23 10:10:40;;;;;;;7.17;3.90;;;15.80;99.90;;;;;;5085247;28;20238;-56
2022/10/23 10:13:21;;;;;;;7.33;3.37;;;15.80;99.90;;;;;;5085511;28;20190;-56
2022/10/23 10:15:54;;;;;;;8.43;3.60;;;15.80;99.90;;;;;;5086601;28;20408;-56
2022/10/23 10:18:39;;;;;;;7.10;3.83;;;15.80;99.90;;;;;;5085722;28;20582;-57
2022/10/23 10:21:27;;;;;;;5.93;3.80;;;15.80;99.90;;;;;;5081911;28;20712;-57
2022/10/23 10:24:17;;;;;;;7.87;3.60;;;15.80;79.00;;;;;;5081286;28;20197;-56
2022/10/23 10:27:03;;;;;;;5.47;3.47;;;15.90;1.00;;;;;;5065550;28;20207;-56
2022/10/23 10:30:09;;;;;;;9.20;3.60;;;15.90;1.00;;;;;;5078503;28;20213;-56
2022/10/23 10:32:41;;;;;;;7.50;3.77;;;16.00;1.00;;;;;;5071149;28;20202;-56
2022/10/23 10:35:20;;;;;;;6.20;3.20;;;16.00;1.00;;;;;;5079051;28;20555;-56
2022/10/23 10:38:06;;;;;;;7.40;3.47;;;16.10;1.00;;;;;;5072275;28;20304;-56
2022/10/23 10:41:01;;;;;;;6.17;3.40;;;16.10;1.00;;;;;;5076307;28;20212;-56
2022/10/23 10:43:42;;;;;;;6.07;3.63;;;16.10;1.00;;;;;;5087114;28;20722;-56
2022/10/23 10:46:27;;;;;;;3.93;3.03;;;16.10;35.30;;;;;;5084691;28;20582;-55
2022/10/23 10:49:02;;;;;;;4.20;3.17;;;16.20;1.00;;;;;;5090521;28;20205;-57
2022/10/23 10:51:39;;;;;;;9.20;3.20;;;16.20;99.90;;;;;;5085450;28;20204;-55
2022/10/23 10:54:33;;;;;;;5.50;3.90;;;16.30;99.90;;;;;;5091423;28;20648;-55
2022/10/23 10:57:09;;;;;;;9.80;4.07;;;16.30;1.00;;;;;;5092860;28;20235;-55
2022/10/23 10:59:41;;;;;;;5.53;3.43;;;16.40;99.90;;;;;;5089881;28;20548;-55
2022/10/23 11:02:18;;;;;;;6.00;3.20;;;16.50;26.30;;;;;;5084104;28;20650;-55
2022/10/23 11:04:49;;;;;;;7.40;3.20;;;16.60;99.90;;;;;;5089906;28;20197;-55
2022/10/23 11:07:22;;;;;;;6.13;3.67;;;16.70;99.90;;;;;;5082091;28;20229;-55
2022/10/23 11:09:49;;;;;;;6.57;3.80;;;16.70;99.90;;;;;;5081274;28;20317;-56
2022/10/23 11:12:22;;;;;;;5.87;3.33;;;16.80;1.00;;;;;;5094512;28;20228;-56
2022/10/23 11:14:49;;;;;;;6.30;3.40;;;16.80;99.90;;;;;;5081610;28;20198;-55
2022/10/23 11:17:26;;;;;;;5.50;3.40;;;16.70;99.90;;;;;;5084276;28;20220;-56
2022/10/23 11:20:08;;;;;;;4.37;3.10;;;16.80;99.90;;;;;;5081929;28;20280;-55
2022/10/23 11:22:57;;;;;;;5.90;3.30;;;17.00;1.00;;;;;;5093648;28;20688;-55
2022/10/23 11:25:39;;;;;;;6.03;3.47;;;17.00;1.00;;;;;;5086785;28;20288;-56
2022/10/23 11:28:29;;;;;;;6.37;3.17;;;17.10;32.10;;;;;;5084771;28;20208;-58
2022/10/23 11:31:16;;;;;;;7.77;3.70;;;17.10;1.00;;;;;;5075551;28;20189;-58
2022/10/23 11:34:30;;;;;;;10.23;3.87;;;17.10;1.00;;;;;;5088774;28;20237;-56
2022/10/23 11:37:03;;;;;;;9.43;3.57;;;17.20;1.00;;;;;;5052931;28;20190;-56
2022/10/23 11:39:32;;;;;;;5.47;3.30;;;17.30;1.00;;;;;;5088364;28;20762;-56
2022/10/23 11:42:12;;;;;;;9.27;3.63;;;17.30;8.50;;;;;;5086527;28;20215;-56
2022/10/23 11:44:47;;;;;;;5.57;3.10;;;17.50;99.90;;;;;;5084365;28;20192;-58
2022/10/23 11:47:41;;;;;;;6.57;3.87;;;17.50;1.00;;;;;;5080565;28;20237;-56
2022/10/23 11:50:08;;;;;;;4.63;3.50;;;17.60;1.00;;;;;;5079686;28;20278;-56
2022/10/23 11:52:56;;;;;;;7.27;4.03;;;17.80;1.00;;;;;;5076895;28;20898;-56
2022/10/23 11:55:54;;;;;;;5.67;3.63;;;17.80;99.90;;;;;;5079130;28;20287;-56
2022/10/23 11:58:30;;;;;;;7.73;3.60;;;17.80;1.00;;;;;;5070480;28;20210;-56
2022/10/23 12:01:02;;;;;;;5.47;3.77;;;17.90;1.00;;;;;;5084267;28;20206;-56
2022/10/23 12:03:47;;;;;;;8.43;3.90;;;17.90;1.00;;;;;;5082143;28;20611;-56
2022/10/23 12:06:41;;;;;;;6.10;3.87;;;17.90;1.00;;;;;;5084069;28;20578;-55
2022/10/23 12:09:29;;;;;;;4.67;3.20;;;17.90;1.00;;;;;;5087657;28;20218;-55
2022/10/23 12:12:07;;;;;;;7.27;3.80;;;17.90;1.00;;;;;;5082944;28;20216;-55
2022/10/23 12:14:37;;;;;;;5.27;3.07;;;17.90;1.00;;;;;;5081321;28;20241;-56
2022/10/23 12:17:22;;;;;;;6.40;3.73;;;17.90;1.00;;;;;;5088050;28;20203;-55
2022/10/23 12:19:54;;;;;;;7.33;3.37;;;17.80;99.90;;;;;;5090916;28;20747;-56
2022/10/23 12:22:26;;;;;;;4.23;3.00;;;17.90;99.90;;;;;;5087450;28;20666;-61
2022/10/23 12:25:02;;;;;;;6.77;3.57;;;18.00;1.00;;;;;;5069220;28;20202;-57
2022/10/23 12:27:40;;;;;;;6.77;3.50;;;18.00;99.90;;;;;;5090357;28;20225;-56
2022/10/23 12:30:27;;;;;;;5.00;3.00;;;18.10;99.90;;;;;;5085652;28;20285;-56
2022/10/23 12:33:23;;;;;;;5.37;2.80;;;18.10;1.00;;;;;;5087027;28;20201;-56
2022/10/23 12:36:02;;;;;;;4.03;2.30;;;18.10;1.00;;;;;;5018597;28;21068;-56
2022/10/23 12:38:29;;;;;;;3.43;2.03;;;18.20;99.90;;;;;;5068767;28;20212;-56
2022/10/23 12:41:09;;;;;;;4.90;2.40;;;18.10;99.90;;;;;;5085202;28;20198;-56
2022/10/23 12:43:37;;;;;;;7.87;2.53;;;18.20;1.00;;;;;;5086706;28;20851;-56
2022/10/23 12:46:36;;;;;;;5.13;2.57;;;18.20;1.00;;;;;;5088171;28;20636;-56
2022/10/23 12:49:11;;;;;;;4.27;2.27;;;18.30;99.90;;;;;;5088875;28;20205;-56
2022/10/23 12:51:38;;;;;;;4.30;2.63;;;18.30;1.00;;;;;;5086531;28;20331;-56
2022/10/23 12:54:19;;;;;;;4.67;2.33;;;18.30;99.90;;;;;;5087843;28;20212;-56
2022/10/23 12:56:46;;;;;;;7.13;2.30;;;18.30;1.00;;;;;;5086354;28;20222;-56
2022/10/23 12:59:26;;;;;;;4.90;2.10;;;18.30;99.90;;;;;;5086555;28;20210;-56
2022/10/23 13:01:54;;;;;;;6.53;3.47;;;18.30;21.90;;;;;;5087109;28;20194;-55
2022/10/23 13:04:32;;;;;;;6.23;2.53;;;18.40;1.00;;;;;;5089292;28;20186;-56
2022/10/23 13:07:00;;;;;;;5.93;2.40;;;18.40;1.00;;;;;;5086550;28;20214;-56
2022/10/23 13:09:38;;;;;;;7.53;2.50;;;18.40;1.00;;;;;;5081800;28;20206;-56
2022/10/23 13:12:06;;;;;;;5.37;2.60;;;18.40;1.00;;;;;;5065284;28;20201;-56
2022/10/23 13:14:39;;;;;;;5.30;2.77;;;18.30;1.00;;;;;;5064395;28;20195;-56